sensor_id;sensor_type;location;lat;lon;timestamp;temperature;humidity
30150;DHT22;16962;48.646;9.026;2023-04-12T00:02:10;7.20;99.90
30150;DHT22;16962;48.646;9.026;2023-04-12T00:04:58;7.00;99.90
30150;DHT22;16962;48.646;9.026;2023-04-12T00:07:54;6.90;99.90
30150;DHT22;16962;48.646;9.026;2023-04-12T00:10:41;6.80;99.90
30150;DHT22;16962;48.646;9.026;2023-04-12T00:13:32;6.70;99.90
30150;DHT22;16962;48.646;9.026;2023-04-12T00:16:34;6.60;99.90
30150;DHT22;16962;48.646;9.026;2023-04-12T00:19:23;6.60;1.00
30150;DHT22;16962;48.646;9.026;2023-04-12T00:22:14;6.50;1.00
30150;DHT22;16962;48.646;9.026;2023-04-12T00:25:04;6.50;1.00
30150;DHT22;16962;48.646;9.026;2023-04-12T00:27:54;6.40;35.70
30150;DHT22;16962;48.646;9.026;2023-04-12T00:30:48;6.30;99.90
30150;DHT22;16962;48.646;9.026;2023-04-12T00:33:42;6.30;99.90
30150;DHT22;16962;48.646;9.026;2023-04-12T00:36:53;6.30;99.90
30150;DHT22;16962;48.646;9.026;2023-04-12T00:39:44;6.20;1.00
30150;DHT22;16962;48.646;9.026;2023-04-12T00:42:31;6.20;99.90
30150;DHT22;16962;48.646;9.026;2023-04-12T00:45:22;6.20;99.90
30150;DHT22;16962;48.646;9.026;2023-04-12T00:48:37;6.10;58.10
30150;DHT22;16962;48.646;9.026;2023-04-12T00:51:50;6.10;99.90
30150;DHT22;16962;48.646;9.026;2023-04-12T00:55:22;6.10;61.60
30150;DHT22;16962;48.646;9.026;2023-04-12T00:59:07;6.00;99.90
30150;DHT22;16962;48.646;9.026;2023-04-12T01:06:57;6.00;99.90
30150;DHT22;16962;48.646;9.026;2023-04-12T01:26:21;5.90;99.90
30150;DHT22;16962;48.646;9.026;2023-04-12T01:32:31;5.80;1.00
30150;DHT22;16962;48.646;9.026;2023-04-12T01:35:43;5.80;1.00
30150;DHT22;16962;48.646;9.026;2023-04-12T01:38:55;5.80;28.00
30150;DHT22;16962;48.646;9.026;2023-04-12T01:41:50;5.80;37.20
30150;DHT22;16962;48.646;9.026;2023-04-12T01:45:19;5.80;67.50
30150;DHT22;16962;48.646;9.026;2023-04-12T01:48:39;5.90;99.90
30150;DHT22;16962;48.646;9.026;2023-04-12T01:52:12;5.90;99.90
30150;DHT22;16962;48.646;9.026;2023-04-12T01:55:44;5.90;99.90
30150;DHT22;16962;48.646;9.026;2023-04-12T01:59:12;5.80;99.90
30150;DHT22;16962;48.646;9.026;2023-04-12T02:02:27;5.90;99.90
30150;DHT22;16962;48.646;9.026;2023-04-12T02:05:18;5.80;99.90
30150;DHT22;16962;48.646;9.026;2023-04-12T02:08:13;5.80;99.90
30150;DHT22;16962;48.646;9.026;2023-04-12T02:11:13;5.90;99.90
30150;DHT22;16962;48.646;9.026;2023-04-12T02:14:32;5.90;99.90
30150;DHT22;16962;48.646;9.026;2023-04-12T02:17:25;5.90;99.90
30150;DHT22;16962;48.646;9.026;2023-04-12T02:20:36;5.90;99.90
30150;DHT22;16962;48.646;9.026;2023-04-12T02:23:50;5.90;99.90
30150;DHT22;16962;48.646;9.026;2023-04-12T02:34:33;5.90;99.90
30150;DHT22;16962;48.646;9.026;2023-04-12T02:37:56;5.80;99.90
30150;DHT22;16962;48.646;9.026;2023-04-12T02:50:27;5.80;99.90
30150;DHT22;16962;48.646;9.026;2023-04-12T03:19:34;5.80;99.90
30150;DHT22;16962;48.646;9.026;2023-04-12T03:57:14;5.80;99.90
30150;DHT22;16962;48.646;9.026;2023-04-12T04:41:45;5.80;99.90
30150;DHT22;16962;48.646;9.026;2023-04-12T04:44:32;5.80;99.90
30150;DHT22;16962;48.646;9.026;2023-04-12T04:47:21;5.80;99.90
30150;DHT22;16962;48.646;9.026;2023-04-12T04:50:10;5.80;99.90
30150;DHT22;16962;48.646;9.026;2023-04-12T04:52:58;5.80;99.90
30150;DHT22;16962;48.646;9.026;2023-04-12T04:55:45;5.80;99.90
30150;DHT22;16962;48.646;9.026;2023-04-12T04:58:34;5.80;99.90
30150;DHT22;16962;48.646;9.026;2023-04-12T05:01:21;5.80;99.90
30150;DHT22;16962;48.646;9.026;2023-04-12T05:04:12;5.90;99.90
30150;DHT22;16962;48.646;9.026;2023-04-12T05:06:59;5.80;99.90
30150;DHT22;16962;48.646;9.026;2023-04-12T05:09:46;5.80;99.90
30150;DHT22;16962;48.646;9.026;2023-04-12T05:12:33;5.90;99.90
30150;DHT22;16962;48.646;9.026;2023-04-12T05:15:21;5.90;99.90
30150;DHT22;16962;48.646;9.026;2023-04-12T05:18:08;5.90;99.90
30150;DHT22;16962;48.646;9.026;2023-04-12T05:20:55;5.90;99.90
30150;DHT22;16962;48.646;9.026;2023-04-12T05:23:44;5.90;99.90
30150;DHT22;16962;48.646;9.026;2023-04-12T05:26:32;5.90;99.90
30150;DHT22;16962;48.646;9.026;2023-04-12T05:29:22;5.90;99.90
30150;DHT22;16962;48.646;9.026;2023-04-12T05:32:09;5.90;99.90
30150;DHT22;16962;48.646;9.026;2023-04-12T05:34:56;5.90;99.90
30150;DHT22;16962;48.646;9.026;2023-04-12T05:37:44;6.00;99.90
30150;DHT22;16962;48.646;9.026;2023-04-12T05:40:31;6.00;99.90
30150;DHT22;16962;48.646;9.026;2023-04-12T05:43:18;6.00;99.90
30150;DHT22;16962;48.646;9.026;2023-04-12T05:46:06;6.00;99.90
30150;DHT22;16962;48.646;9.026;2023-04-12T05:49:00;6.10;99.90
30150;DHT22;16962;48.646;9.026;2023-04-12T05:52:07;6.10;99.90
30150;DHT22;16962;48.646;9.026;2023-04-12T05:58:33;6.20;99.90
30150;DHT22;16962;48.646;9.026;2023-04-12T06:01:28;6.20;99.90
30150;DHT22;16962;48.646;9.026;2023-04-12T06:04:29;6.20;99.90
30150;DHT22;16962;48.646;9.026;2023-04-12T06:12:00;6.30;99.90
30150;DHT22;16962;48.646;9.026;2023-04-12T06:26:04;6.40;99.90
30150;DHT22;16962;48.646;9.026;2023-04-12T06:28:55;6.40;99.90
30150;DHT22;16962;48.646;9.026;2023-04-12T06:32:20;6.50;99.90
30150;DHT22;16962;48.646;9.026;2023-04-12T06:44:14;6.60;99.90
30150;DHT22;16962;48.646;9.026;2023-04-12T07:00:20;6.80;99.90
30150;DHT22;16962;48.646;9.026;2023-04-12T07:04:31;6.90;99.90
30150;DHT22;16962;48.646;9.026;2023-04-12T07:12:24;7.10;99.90
30150;DHT22;16962;48.646;9.026;2023-04-12T07:15:57;7.20;99.90
30150;DHT22;16962;48.646;9.026;2023-04-12T07:23:29;7.30;99.90
30150;DHT22;16962;48.646;9.026;2023-04-12T07:30:17;7.40;99.90
30150;DHT22;16962;48.646;9.026;2023-04-12T07:33:14;7.50;99.90
30150;DHT22;16962;48.646;9.026;2023-04-12T07:36:06;7.60;99.90
30150;DHT22;16962;48.646;9.026;2023-04-12T07:39:04;7.70;99.90
30150;DHT22;16962;48.646;9.026;2023-04-12T07:42:22;7.80;99.90
30150;DHT22;16962;48.646;9.026;2023-04-12T07:49:28;8.10;99.90
30150;DHT22;16962;48.646;9.026;2023-04-12T07:53:16;8.30;99.90
30150;DHT22;16962;48.646;9.026;2023-04-12T07:56:13;8.40;99.90
30150;DHT22;16962;48.646;9.026;2023-04-12T07:59:01;8.50;99.90
30150;DHT22;16962;48.646;9.026;2023-04-12T08:10:42;8.80;13.50
30150;DHT22;16962;48.646;9.026;2023-04-12T08:25:02;9.10;99.90
30150;DHT22;16962;48.646;9.026;2023-04-12T08:28:15;9.20;99.90
30150;DHT22;16962;48.646;9.026;2023-04-12T08:31:30;9.20;99.90
30150;DHT22;16962;48.646;9.026;2023-04-12T08:34:22;9.20;1.00
30150;DHT22;16962;48.646;9.026;2023-04-12T08:37:12;9.20;99.90
30150;DHT22;16962;48.646;9.026;2023-04-12T08:40:10;9.20;99.90
30150;DHT22;16962;48.646;9.026;2023-04-12T08:43:00;9.20;1.00
30150;DHT22;16962;48.646;9.026;2023-04-12T08:46:08;9.20;99.90
30150;DHT22;16962;48.646;9.026;2023-04-12T08:49:00;9.30;1.00
30150;DHT22;16962;48.646;9.026;2023-04-12T08:51:50;9.30;99.90
30150;DHT22;16962;48.646;9.026;2023-04-12T08:55:09;9.20;99.90
30150;DHT22;16962;48.646;9.026;2023-04-12T08:58:29;9.10;99.90
30150;DHT22;16962;48.646;9.026;2023-04-12T09:01:29;9.00;99.90
30150;DHT22;16962;48.646;9.026;2023-04-12T09:07:32;9.00;99.90
30150;DHT22;16962;48.646;9.026;2023-04-12T09:10:34;9.10;3.00
30150;DHT22;16962;48.646;9.026;2023-04-12T09:13:40;9.10;99.90
30150;DHT22;16962;48.646;9.026;2023-04-12T09:16:49;9.20;99.90
30150;DHT22;16962;48.646;9.026;2023-04-12T09:19:36;9.20;1.00
30150;DHT22;16962;48.646;9.026;2023-04-12T09:26:45;9.40;1.00
30150;DHT22;16962;48.646;9.026;2023-04-12T09:30:59;9.30;1.00
30150;DHT22;16962;48.646;9.026;2023-04-12T09:34:08;9.30;99.90
30150;DHT22;16962;48.646;9.026;2023-04-12T09:36:55;9.30;99.90
30150;DHT22;16962;48.646;9.026;2023-04-12T09:40:16;9.40;99.90
30150;DHT22;16962;48.646;9.026;2023-04-12T09:44:02;9.50;99.90
30150;DHT22;16962;48.646;9.026;2023-04-12T09:47:51;9.60;1.00
30150;DHT22;16962;48.646;9.026;2023-04-12T09:51:31;9.80;1.00
30150;DHT22;16962;48.646;9.026;2023-04-12T09:54:29;9.80;99.90
30150;DHT22;16962;48.646;9.026;2023-04-12T09:57:24;9.80;1.00
30150;DHT22;16962;48.646;9.026;2023-04-12T10:05:38;9.90;75.50
30150;DHT22;16962;48.646;9.026;2023-04-12T10:09:07;10.30;1.00
30150;DHT22;16962;48.646;9.026;2023-04-12T10:12:48;10.20;98.60
30150;DHT22;16962;48.646;9.026;2023-04-12T10:24:38;10.60;1.00
30150;DHT22;16962;48.646;9.026;2023-04-12T10:36:37;11.00;99.90
30150;DHT22;16962;48.646;9.026;2023-04-12T10:48:56;11.70;99.90
30150;DHT22;16962;48.646;9.026;2023-04-12T11:15:10;12.40;99.90
30150;DHT22;16962;48.646;9.026;2023-04-12T11:18:06;12.20;99.90
30150;DHT22;16962;48.646;9.026;2023-04-12T11:20:56;12.10;99.90
30150;DHT22;16962;48.646;9.026;2023-04-12T11:23:55;12.20;99.90
30150;DHT22;16962;48.646;9.026;2023-04-12T11:26:49;12.10;99.90
30150;DHT22;16962;48.646;9.026;2023-04-12T11:30:01;12.40;99.90
30150;DHT22;16962;48.646;9.026;2023-04-12T11:32:58;12.30;99.90
30150;DHT22;16962;48.646;9.026;2023-04-12T11:35:45;12.20;99.90
30150;DHT22;16962;48.646;9.026;2023-04-12T11:38:37;12.50;99.90
30150;DHT22;16962;48.646;9.026;2023-04-12T11:41:48;12.60;99.90
30150;DHT22;16962;48.646;9.026;2023-04-12T11:45:21;13.00;99.90
30150;DHT22;16962;48.646;9.026;2023-04-12T11:48:18;13.00;99.90
30150;DHT22;16962;48.646;9.026;2023-04-12T11:51:21;13.70;99.90
30150;DHT22;16962;48.646;9.026;2023-04-12T11:55:09;13.70;93.80
30150;DHT22;16962;48.646;9.026;2023-04-12T12:02:23;13.40;51.50
30150;DHT22;16962;48.646;9.026;2023-04-12T12:06:25;12.70;94.50
30150;DHT22;16962;48.646;9.026;2023-04-12T12:09:59;12.70;99.90
30150;DHT22;16962;48.646;9.026;2023-04-12T12:12:48;12.70;99.90
30150;DHT22;16962;48.646;9.026;2023-04-12T12:15:58;13.00;99.90
30150;DHT22;16962;48.646;9.026;2023-04-12T12:19:05;13.60;91.90
30150;DHT22;16962;48.646;9.026;2023-04-12T12:22:32;13.40;7.00
30150;DHT22;16962;48.646;9.026;2023-04-12T12:29:37;13.20;1.00
30150;DHT22;16962;48.646;9.026;2023-04-12T12:32:49;14.20;1.00
30150;DHT22;16962;48.646;9.026;2023-04-12T12:36:12;15.00;1.00
30150;DHT22;16962;48.646;9.026;2023-04-12T12:39:20;15.60;1.00
30150;DHT22;16962;48.646;9.026;2023-04-12T12:42:14;15.90;99.90
30150;DHT22;16962;48.646;9.026;2023-04-12T12:45:06;14.80;99.90
30150;DHT22;16962;48.646;9.026;2023-04-12T12:48:04;13.80;99.90
30150;DHT22;16962;48.646;9.026;2023-04-12T12:50:53;13.30;99.90
30150;DHT22;16962;48.646;9.026;2023-04-12T12:53:41;13.10;1.00
30150;DHT22;16962;48.646;9.026;2023-04-12T12:56:32;13.00;1.00
30150;DHT22;16962;48.646;9.026;2023-04-12T12:59:22;13.40;1.00
30150;DHT22;16962;48.646;9.026;2023-04-12T13:02:19;13.90;1.00
30150;DHT22;16962;48.646;9.026;2023-04-12T13:05:11;13.70;99.90
30150;DHT22;16962;48.646;9.026;2023-04-12T13:08:05;13.40;1.00
30150;DHT22;16962;48.646;9.026;2023-04-12T13:10:54;13.20;1.00
30150;DHT22;16962;48.646;9.026;2023-04-12T13:13:43;13.40;1.00
30150;DHT22;16962;48.646;9.026;2023-04-12T13:16:44;13.50;1.00
30150;DHT22;16962;48.646;9.026;2023-04-12T13:19:40;13.30;1.00
30150;DHT22;16962;48.646;9.026;2023-04-12T13:22:28;13.20;1.00
30150;DHT22;16962;48.646;9.026;2023-04-12T13:25:22;13.20;1.00
30150;DHT22;16962;48.646;9.026;2023-04-12T13:28:19;13.30;1.00
30150;DHT22;16962;48.646;9.026;2023-04-12T13:31:10;13.50;1.00
30150;DHT22;16962;48.646;9.026;2023-04-12T13:33:57;13.20;1.00
30150;DHT22;16962;48.646;9.026;2023-04-12T13:36:48;13.30;1.00
30150;DHT22;16962;48.646;9.026;2023-04-12T13:39:35;13.80;99.90
30150;DHT22;16962;48.646;9.026;2023-04-12T13:42:27;14.10;99.90
30150;DHT22;16962;48.646;9.026;2023-04-12T13:45:19;14.40;99.90
30150;DHT22;16962;48.646;9.026;2023-04-12T13:48:09;14.00;99.90
30150;DHT22;16962;48.646;9.026;2023-04-12T13:50:57;13.70;99.90
30150;DHT22;16962;48.646;9.026;2023-04-12T13:53:46;13.50;99.90
30150;DHT22;16962;48.646;9.026;2023-04-12T13:57:00;13.30;99.90
30150;DHT22;16962;48.646;9.026;2023-04-12T14:00:06;13.30;99.90
30150;DHT22;16962;48.646;9.026;2023-04-12T14:03:12;13.40;99.90
30150;DHT22;16962;48.646;9.026;2023-04-12T14:06:09;13.10;99.90
30150;DHT22;16962;48.646;9.026;2023-04-12T14:08:58;13.00;99.90
30150;DHT22;16962;48.646;9.026;2023-04-12T14:11:47;13.10;99.90
30150;DHT22;16962;48.646;9.026;2023-04-12T14:14:44;13.50;99.90
30150;DHT22;16962;48.646;9.026;2023-04-12T14:17:35;14.50;99.90
30150;DHT22;16962;48.646;9.026;2023-04-12T14:20:23;14.70;99.90
30150;DHT22;16962;48.646;9.026;2023-04-12T14:23:18;14.80;99.90
30150;DHT22;16962;48.646;9.026;2023-04-12T14:26:13;14.20;99.90
30150;DHT22;16962;48.646;9.026;2023-04-12T14:29:08;14.10;99.90
30150;DHT22;16962;48.646;9.026;2023-04-12T14:31:56;14.40;99.90
30150;DHT22;16962;48.646;9.026;2023-04-12T14:34:48;15.50;99.90
30150;DHT22;16962;48.646;9.026;2023-04-12T14:37:38;16.70;99.90
30150;DHT22;16962;48.646;9.026;2023-04-12T14:43:28;15.10;99.90
30150;DHT22;16962;48.646;9.026;2023-04-12T14:53:58;15.00;99.90
30150;DHT22;16962;48.646;9.026;2023-04-12T14:57:15;14.20;99.90
30150;DHT22;16962;48.646;9.026;2023-04-12T15:01:10;13.70;99.90
30150;DHT22;16962;48.646;9.026;2023-04-12T15:16:10;13.00;99.90
30150;DHT22;16962;48.646;9.026;2023-04-12T15:27:28;10.90;1.00
30150;DHT22;16962;48.646;9.026;2023-04-12T15:31:00;9.90;46.60
30150;DHT22;16962;48.646;9.026;2023-04-12T15:34:14;9.30;99.90
30150;DHT22;16962;48.646;9.026;2023-04-12T15:37:51;9.00;99.90
30150;DHT22;16962;48.646;9.026;2023-04-12T15:41:12;8.90;1.00
30150;DHT22;16962;48.646;9.026;2023-04-12T15:44:40;8.90;1.00
30150;DHT22;16962;48.646;9.026;2023-04-12T15:52:34;9.20;14.00
30150;DHT22;16962;48.646;9.026;2023-04-12T15:55:44;9.60;1.00
30150;DHT22;16962;48.646;9.026;2023-04-12T15:58:47;9.50;1.00
30150;DHT22;16962;48.646;9.026;2023-04-12T16:01:58;9.60;1.00
30150;DHT22;16962;48.646;9.026;2023-04-12T16:04:50;9.60;1.00
30150;DHT22;16962;48.646;9.026;2023-04-12T16:08:30;9.60;1.00
30150;DHT22;16962;48.646;9.026;2023-04-12T16:11:32;9.40;1.00
30150;DHT22;16962;48.646;9.026;2023-04-12T16:14:44;9.30;1.00
30150;DHT22;16962;48.646;9.026;2023-04-12T16:17:36;9.20;1.00
30150;DHT22;16962;48.646;9.026;2023-04-12T16:20:24;9.30;1.00
30150;DHT22;16962;48.646;9.026;2023-04-12T16:23:12;9.30;1.00
30150;DHT22;16962;48.646;9.026;2023-04-12T16:26:02;9.30;1.00
30150;DHT22;16962;48.646;9.026;2023-04-12T16:28:52;9.30;1.00
30150;DHT22;16962;48.646;9.026;2023-04-12T16:31:47;9.40;1.00
30150;DHT22;16962;48.646;9.026;2023-04-12T16:38:28;9.60;99.90
30150;DHT22;16962;48.646;9.026;2023-04-12T16:41:48;9.60;99.90
30150;DHT22;16962;48.646;9.026;2023-04-12T16:44:42;9.50;99.90
30150;DHT22;16962;48.646;9.026;2023-04-12T16:47:49;9.50;99.90
30150;DHT22;16962;48.646;9.026;2023-04-12T16:50:59;9.50;99.90
30150;DHT22;16962;48.646;9.026;2023-04-12T16:53:52;9.50;99.90
30150;DHT22;16962;48.646;9.026;2023-04-12T16:56:39;9.40;99.90
30150;DHT22;16962;48.646;9.026;2023-04-12T16:59:33;9.40;99.90
30150;DHT22;16962;48.646;9.026;2023-04-12T17:02:21;9.40;99.90
30150;DHT22;16962;48.646;9.026;2023-04-12T17:05:12;9.40;99.90
30150;DHT22;16962;48.646;9.026;2023-04-12T17:08:17;9.30;99.90
30150;DHT22;16962;48.646;9.026;2023-04-12T17:11:05;9.20;99.90
30150;DHT22;16962;48.646;9.026;2023-04-12T17:13:56;9.20;99.90
30150;DHT22;16962;48.646;9.026;2023-04-12T17:16:44;9.00;99.90
30150;DHT22;16962;48.646;9.026;2023-04-12T17:19:43;8.90;99.90
30150;DHT22;16962;48.646;9.026;2023-04-12T17:22:30;8.80;1.00
30150;DHT22;16962;48.646;9.026;2023-04-12T17:25:18;8.70;1.00
30150;DHT22;16962;48.646;9.026;2023-04-12T17:28:13;8.50;1.00
30150;DHT22;16962;48.646;9.026;2023-04-12T17:35:13;8.40;94.00
30150;DHT22;16962;48.646;9.026;2023-04-12T17:38:01;8.30;99.90
30150;DHT22;16962;48.646;9.026;2023-04-12T17:40:50;8.20;99.90
30150;DHT22;16962;48.646;9.026;2023-04-12T17:43:39;8.20;99.90
30150;DHT22;16962;48.646;9.026;2023-04-12T17:46:26;8.10;99.90
30150;DHT22;16962;48.646;9.026;2023-04-12T17:49:14;8.10;99.90
30150;DHT22;16962;48.646;9.026;2023-04-12T17:52:02;8.10;1.00
30150;DHT22;16962;48.646;9.026;2023-04-12T17:54:50;8.10;46.60
30150;DHT22;16962;48.646;9.026;2023-04-12T17:57:40;8.10;99.90
30150;DHT22;16962;48.646;9.026;2023-04-12T18:00:30;8.00;99.90
30150;DHT22;16962;48.646;9.026;2023-04-12T18:03:29;8.00;99.90
30150;DHT22;16962;48.646;9.026;2023-04-12T18:06:18;7.90;1.00
30150;DHT22;16962;48.646;9.026;2023-04-12T18:09:11;7.80;1.00
30150;DHT22;16962;48.646;9.026;2023-04-12T18:11:59;7.80;52.40
30150;DHT22;16962;48.646;9.026;2023-04-12T18:14:50;7.80;99.90
30150;DHT22;16962;48.646;9.026;2023-04-12T18:17:37;7.80;99.90
30150;DHT22;16962;48.646;9.026;2023-04-12T18:20:28;7.80;99.90
30150;DHT22;16962;48.646;9.026;2023-04-12T18:23:17;7.80;1.00
30150;DHT22;16962;48.646;9.026;2023-04-12T18:26:19;7.70;1.00
30150;DHT22;16962;48.646;9.026;2023-04-12T18:29:10;7.70;1.00
30150;DHT22;16962;48.646;9.026;2023-04-12T18:32:06;7.70;10.30
30150;DHT22;16962;48.646;9.026;2023-04-12T18:35:01;7.70;1.00
30150;DHT22;16962;48.646;9.026;2023-04-12T18:37:52;7.70;1.00
30150;DHT22;16962;48.646;9.026;2023-04-12T18:40:40;7.70;37.00
30150;DHT22;16962;48.646;9.026;2023-04-12T18:43:31;7.70;1.00
30150;DHT22;16962;48.646;9.026;2023-04-12T18:46:20;7.70;1.00
30150;DHT22;16962;48.646;9.026;2023-04-12T18:49:13;7.70;1.00
30150;DHT22;16962;48.646;9.026;2023-04-12T18:52:04;7.70;99.90
30150;DHT22;16962;48.646;9.026;2023-04-12T18:54:52;7.70;1.00
30150;DHT22;16962;48.646;9.026;2023-04-12T18:57:42;7.70;99.90
30150;DHT22;16962;48.646;9.026;2023-04-12T19:00:35;7.70;99.90
30150;DHT22;16962;48.646;9.026;2023-04-12T19:03:26;7.70;99.90
30150;DHT22;16962;48.646;9.026;2023-04-12T19:06:14;7.70;99.90
30150;DHT22;16962;48.646;9.026;2023-04-12T19:09:06;7.80;1.00
30150;DHT22;16962;48.646;9.026;2023-04-12T19:11:54;7.80;99.90
30150;DHT22;16962;48.646;9.026;2023-04-12T19:14:46;7.80;99.90
30150;DHT22;16962;48.646;9.026;2023-04-12T19:17:37;7.80;99.90
30150;DHT22;16962;48.646;9.026;2023-04-12T19:20:26;7.80;99.90
30150;DHT22;16962;48.646;9.026;2023-04-12T19:23:16;7.80;99.90
30150;DHT22;16962;48.646;9.026;2023-04-12T19:26:04;7.80;99.90
30150;DHT22;16962;48.646;9.026;2023-04-12T19:28:58;7.80;99.90
30150;DHT22;16962;48.646;9.026;2023-04-12T19:31:47;7.80;99.90
30150;DHT22;16962;48.646;9.026;2023-04-12T19:34:42;7.80;99.90
30150;DHT22;16962;48.646;9.026;2023-04-12T19:37:29;7.80;99.90
30150;DHT22;16962;48.646;9.026;2023-04-12T19:40:20;7.70;31.40
30150;DHT22;16962;48.646;9.026;2023-04-12T19:43:08;7.70;1.00
30150;DHT22;16962;48.646;9.026;2023-04-12T19:45:55;7.70;1.00
30150;DHT22;16962;48.646;9.026;2023-04-12T19:48:46;7.70;1.00
30150;DHT22;16962;48.646;9.026;2023-04-12T19:51:36;7.70;1.00
30150;DHT22;16962;48.646;9.026;2023-04-12T19:54:24;7.70;99.90
30150;DHT22;16962;48.646;9.026;2023-04-12T19:57:16;7.60;99.90
30150;DHT22;16962;48.646;9.026;2023-04-12T20:00:05;7.60;99.90
30150;DHT22;16962;48.646;9.026;2023-04-12T20:03:01;7.60;99.90
30150;DHT22;16962;48.646;9.026;2023-04-12T20:05:51;7.60;99.90
30150;DHT22;16962;48.646;9.026;2023-04-12T20:08:39;7.60;99.90
30150;DHT22;16962;48.646;9.026;2023-04-12T20:11:26;7.60;99.90
30150;DHT22;16962;48.646;9.026;2023-04-12T20:14:15;7.60;99.90
30150;DHT22;16962;48.646;9.026;2023-04-12T20:17:03;7.60;99.90
30150;DHT22;16962;48.646;9.026;2023-04-12T20:19:52;7.70;99.90
30150;DHT22;16962;48.646;9.026;2023-04-12T20:22:43;7.60;91.50
30150;DHT22;16962;48.646;9.026;2023-04-12T20:25:32;7.70;35.50
30150;DHT22;16962;48.646;9.026;2023-04-12T20:28:23;7.70;5.00
30150;DHT22;16962;48.646;9.026;2023-04-12T20:31:11;7.70;1.00
30150;DHT22;16962;48.646;9.026;2023-04-12T20:33:59;7.70;1.00
30150;DHT22;16962;48.646;9.026;2023-04-12T20:41:08;7.70;1.00
30150;DHT22;16962;48.646;9.026;2023-04-12T20:43:59;7.70;1.00
30150;DHT22;16962;48.646;9.026;2023-04-12T20:46:47;7.70;1.00
30150;DHT22;16962;48.646;9.026;2023-04-12T20:49:35;7.60;70.00
30150;DHT22;16962;48.646;9.026;2023-04-12T20:52:25;7.50;99.90
30150;DHT22;16962;48.646;9.026;2023-04-12T20:55:13;7.30;99.90
30150;DHT22;16962;48.646;9.026;2023-04-12T20:58:03;7.30;1.00
30150;DHT22;16962;48.646;9.026;2023-04-12T21:00:53;7.20;99.90
30150;DHT22;16962;48.646;9.026;2023-04-12T21:03:43;7.20;1.00
30150;DHT22;16962;48.646;9.026;2023-04-12T21:06:31;7.20;99.90
30150;DHT22;16962;48.646;9.026;2023-04-12T21:09:21;7.10;1.00
30150;DHT22;16962;48.646;9.026;2023-04-12T21:12:11;6.90;99.90
30150;DHT22;16962;48.646;9.026;2023-04-12T21:14:59;6.50;99.90
30150;DHT22;16962;48.646;9.026;2023-04-12T21:18:04;6.30;1.00
30150;DHT22;16962;48.646;9.026;2023-04-12T21:20:58;6.20;99.90
30150;DHT22;16962;48.646;9.026;2023-04-12T21:23:46;6.10;99.90
30150;DHT22;16962;48.646;9.026;2023-04-12T21:26:36;6.10;1.00
30150;DHT22;16962;48.646;9.026;2023-04-12T21:29:23;6.10;1.00
30150;DHT22;16962;48.646;9.026;2023-04-12T21:32:12;6.20;1.00
30150;DHT22;16962;48.646;9.026;2023-04-12T21:35:02;6.10;1.00
30150;DHT22;16962;48.646;9.026;2023-04-12T21:37:55;6.10;99.90
30150;DHT22;16962;48.646;9.026;2023-04-12T21:40:52;6.10;1.00
30150;DHT22;16962;48.646;9.026;2023-04-12T21:47:19;6.10;73.50
30150;DHT22;16962;48.646;9.026;2023-04-12T21:50:10;6.10;99.90
30150;DHT22;16962;48.646;9.026;2023-04-12T21:53:01;6.00;99.90
30150;DHT22;16962;48.646;9.026;2023-04-12T21:55:57;6.10;99.90
30150;DHT22;16962;48.646;9.026;2023-04-12T21:58:47;6.10;99.90
30150;DHT22;16962;48.646;9.026;2023-04-12T22:01:37;6.20;1.00
30150;DHT22;16962;48.646;9.026;2023-04-12T22:04:25;6.10;36.00
30150;DHT22;16962;48.646;9.026;2023-04-12T22:07:18;6.10;99.90
30150;DHT22;16962;48.646;9.026;2023-04-12T22:10:09;6.10;99.90
30150;DHT22;16962;48.646;9.026;2023-04-12T22:12:58;6.10;1.00
30150;DHT22;16962;48.646;9.026;2023-04-12T22:15:45;6.10;99.90
30150;DHT22;16962;48.646;9.026;2023-04-12T22:18:33;6.10;47.60
30150;DHT22;16962;48.646;9.026;2023-04-12T22:21:35;6.10;99.90
30150;DHT22;16962;48.646;9.026;2023-04-12T22:24:23;6.10;31.20
30150;DHT22;16962;48.646;9.026;2023-04-12T22:27:12;6.10;99.90
30150;DHT22;16962;48.646;9.026;2023-04-12T22:30:05;6.10;99.90
30150;DHT22;16962;48.646;9.026;2023-04-12T22:32:59;6.00;99.90
30150;DHT22;16962;48.646;9.026;2023-04-12T22:35:52;6.00;28.20
30150;DHT22;16962;48.646;9.026;2023-04-12T22:38:42;5.90;1.00
30150;DHT22;16962;48.646;9.026;2023-04-12T22:41:31;5.80;1.00
30150;DHT22;16962;48.646;9.026;2023-04-12T22:44:25;5.80;99.90
30150;DHT22;16962;48.646;9.026;2023-04-12T22:47:13;5.80;99.90
30150;DHT22;16962;48.646;9.026;2023-04-12T22:50:01;5.70;99.90
30150;DHT22;16962;48.646;9.026;2023-04-12T22:52:54;5.70;99.90
30150;DHT22;16962;48.646;9.026;2023-04-12T22:55:44;5.70;99.90
30150;DHT22;16962;48.646;9.026;2023-04-12T22:58:31;5.60;99.90
30150;DHT22;16962;48.646;9.026;2023-04-12T23:01:19;5.60;99.90
30150;DHT22;16962;48.646;9.026;2023-04-12T23:04:14;5.60;1.00
30150;DHT22;16962;48.646;9.026;2023-04-12T23:07:02;5.60;1.00
30150;DHT22;16962;48.646;9.026;2023-04-12T23:09:50;5.50;99.90
30150;DHT22;16962;48.646;9.026;2023-04-12T23:12:38;5.50;99.90
30150;DHT22;16962;48.646;9.026;2023-04-12T23:15:26;5.50;99.90
30150;DHT22;16962;48.646;9.026;2023-04-12T23:18:13;5.40;99.90
30150;DHT22;16962;48.646;9.026;2023-04-12T23:21:05;5.30;4.60
30150;DHT22;16962;48.646;9.026;2023-04-12T23:23:53;5.10;99.90
30150;DHT22;16962;48.646;9.026;2023-04-12T23:26:43;5.10;1.00
30150;DHT22;16962;48.646;9.026;2023-04-12T23:29:33;5.00;70.60
30150;DHT22;16962;48.646;9.026;2023-04-12T23:32:26;5.00;1.00
30150;DHT22;16962;48.646;9.026;2023-04-12T23:35:22;4.90;99.90
30150;DHT22;16962;48.646;9.026;2023-04-12T23:38:11;4.90;99.90
30150;DHT22;16962;48.646;9.026;2023-04-12T23:41:05;4.90;1.00
30150;DHT22;16962;48.646;9.026;2023-04-12T23:43:53;4.90;1.00
30150;DHT22;16962;48.646;9.026;2023-04-12T23:46:41;4.90;1.00
30150;DHT22;16962;48.646;9.026;2023-04-12T23:49:29;4.90;1.00
30150;DHT22;16962;48.646;9.026;2023-04-12T23:52:17;4.90;99.90
30150;DHT22;16962;48.646;9.026;2023-04-12T23:55:05;4.90;1.00
30150;DHT22;16962;48.646;9.026;2023-04-12T23:57:52;4.90;23.60
